ADDS METAR Data INFO
IDs: Format: Raw Decoded Include TAF

Data at: 2054 UTC 26 May 2017

KSAT 262051Z 15006KT 10SM SCT036 BKN044 31/22 A2984 RMK AO2 SLP086 T03110217 58016
KSAT 261951Z 19010KT 10SM SCT027 OVC040 30/22 A2987 RMK AO2 SLP094 T03000222
KSAT 261851Z 16006KT 10SM FEW017 SCT024 OVC038 29/23 A2988 RMK AO2 SLP098 T02890228
KSAT 261751Z 16011KT 10SM BKN018 OVC027 27/23 A2989 RMK AO2 SLP103 60000 T02720228 10278 20239 50007
KSAT 261651Z 17010KT 10SM BKN019 OVC023 27/22 A2989 RMK AO2 SLP104 T02720222
KSAT 261551Z 16011KT 10SM BKN015 OVC020 27/22 A2988 RMK AO2 SLP099 T02670222
KSAT 261539Z 14012KT 10SM OVC015 27/23 A2987 RMK AO2 T02670228
KSAT 261451Z 16008KT 10SM OVC011 26/22 A2987 RMK AO2 SLP096 60000 T02560222 51013
KSAT 261351Z 15009KT 10SM OVC011 25/22 A2986 RMK AO2 RAE19 SLP094 P0000 T02500222
KSAT 261328Z 15012KT 10SM OVC012 25/22 A2986 RMK AO2 RAE19 P0000 T02500217
KSAT 261307Z 16009KT 8SM -RA OVC090 24/22 A2986 RMK AO2 P0000 T02440222
KSAT 261251Z 16009KT 6SM -RA BR OVC008 24/23 A2986 RMK AO2 SLP091 P0000 T02440233
KSAT 261151Z 16008KT 10SM -RA OVC009 24/22 A2983 RMK AO2 DZB31E37RAB37 SLP082 P0000 60000 T02440217 10250 20239 53015
KSAT 261051Z 17008KT 10SM OVC009 24/22 A2981 RMK AO2 SLP075 T02440217
KSAT 261011Z 17009KT 7SM OVC009 24/22 A2980 RMK AO2 T02390222
KSAT 260951Z 16010KT 10SM BKN014 OVC028 24/22 A2980 RMK AO2 SLP073 T02440217
KSAT 260933Z 15012KT 10SM BKN014 OVC028 24/22 A2979 RMK AO2 T02390217
KSAT 260851Z 16008KT 10SM BKN018 OVC028 25/22 A2979 RMK AO2 SLP067 T02500217 58003
KSAT 260751Z 16010KT 10SM BKN015 OVC028 25/22 A2979 RMK AO2 SLP068 T02500217
KSAT 260747Z 17010KT 10SM BKN015 OVC028 25/22 A2979 RMK AO2
KSAT 260651Z 16011KT 10SM OVC011 25/22 A2979 RMK AO2 SLP069 T02500222
KSAT 260551Z 16013KT 10SM OVC010 25/22 A2980 RMK AO2 SLP071 T02500217 10322 20244 403440178 51021
KSAT 260451Z 15014KT 10SM OVC012 25/22 A2979 RMK AO2 SLP070 T02500217
KSAT 260416Z 15017G20KT 10SM OVC014 25/21 A2978 RMK AO2 T02500211
KSAT 260351Z 16018G24KT 10SM OVC017 26/21 A2977 RMK AO2 SLP063 T02560211
KSAT 260334Z 13012G21KT 10SM BKN017 BKN250 26/21 A2977 RMK AO2 T02560211
KSAT 260251Z 14014KT 10SM FEW250 26/21 A2973 RMK AO2 SLP050 T02610206 53012
KSAT 260151Z 14014KT 10SM FEW250 28/21 A2971 RMK AO2 SLP043 T02780206
KSAT 260051Z 14014KT 10SM FEW250 30/20 A2971 RMK AO2 SLP042 T03000200
KSAT 252351Z 15016KT 10SM FEW250 32/19 A2970 RMK AO2 SLP038 T03220189 10344 20294 56010
KSAT 252251Z 16015G24KT 10SM FEW250 33/18 A2970 RMK AO2 SLP038 T03330178
KSAT 252151Z 16013KT 10SM FEW250 34/17 A2971 RMK AO2 SLP041 T03390172
KSAT 252051Z 15011G21KT 10SM SCT250 33/18 A2973 RMK AO2 SLP047 T03330178 58021
KSAT 251951Z 18013G20KT 10SM SCT250 33/17 A2975 RMK AO2 SLP057 T03280172
KSAT 251851Z 17010G18KT 10SM SCT250 31/17 A2978 RMK AO2 SLP064 T03110167
KSAT 251751Z 17013G19KT 10SM FEW250 30/16 A2979 RMK AO2 SLP070 T03000161 10300 20178 56010
KSAT 251651Z 19015G22KT 10SM FEW250 28/14 A2980 RMK AO2 SLP073 T02830139
KSAT 251551Z 17011KT 10SM FEW250 26/13 A2982 RMK AO2 SLP079 T02610128
KSAT 251451Z 17014KT 10SM CLR 24/13 A2982 RMK AO2 SLP081 T02390133 50006
KSAT 251351Z 20010G17KT 10SM CLR 22/14 A2983 RMK AO2 SLP083 T02170139
KSAT 251251Z 18008KT 10SM CLR 19/12 A2982 RMK AO2 SLP079 T01940122
KSAT 251151Z 20004KT 10SM CLR 18/12 A2981 RMK AO2 SLP076 T01780117 10217 20178 53013
KSAT 251051Z 20008KT 10SM CLR 18/12 A2978 RMK AO2 SLP068 T01830117
KSAT 250951Z 19008KT 10SM CLR 19/11 A2977 RMK AO2 SLP063 T01890106


Page loaded:  20:54 UTC  |   01:54 PM Pacific  |   02:54 PM Mountain  |   03:54 PM Central  |   04:54 PM Eastern

 

ADVISORIES

FORECASTS

FORECASTS

OBSERVATIONS

USER TOOLS

ABOUT US